sensor_id;sensor_type;location;lat;lon;timestamp;P1;durP1;ratioP1;P2;durP2;ratioP2
59127;SDS011;44912;52.754;5.994;2022-07-24T00:02:05;9.63;;;5.70;;
59127;SDS011;44912;52.754;5.994;2022-07-24T00:04:31;9.18;;;5.82;;
59127;SDS011;44912;52.754;5.994;2022-07-24T00:06:56;9.13;;;5.88;;
59127;SDS011;44912;52.754;5.994;2022-07-24T00:09:22;7.88;;;5.18;;
59127;SDS011;44912;52.754;5.994;2022-07-24T00:11:50;8.10;;;5.05;;
59127;SDS011;44912;52.754;5.994;2022-07-24T00:14:15;7.32;;;5.50;;
59127;SDS011;44912;52.754;5.994;2022-07-24T00:16:43;7.57;;;5.25;;
59127;SDS011;44912;52.754;5.994;2022-07-24T00:19:09;7.05;;;5.03;;
59127;SDS011;44912;52.754;5.994;2022-07-24T00:21:34;10.05;;;5.65;;
59127;SDS011;44912;52.754;5.994;2022-07-24T00:24:00;8.20;;;5.38;;
59127;SDS011;44912;52.754;5.994;2022-07-24T00:26:26;9.57;;;5.20;;
59127;SDS011;44912;52.754;5.994;2022-07-24T00:28:51;10.15;;;5.30;;
59127;SDS011;44912;52.754;5.994;2022-07-24T00:31:17;8.15;;;5.30;;
59127;SDS011;44912;52.754;5.994;2022-07-24T00:33:44;8.13;;;5.18;;
59127;SDS011;44912;52.754;5.994;2022-07-24T00:36:09;7.55;;;5.63;;
59127;SDS011;44912;52.754;5.994;2022-07-24T00:38:35;7.55;;;5.10;;
59127;SDS011;44912;52.754;5.994;2022-07-24T00:41:01;7.90;;;5.40;;
59127;SDS011;44912;52.754;5.994;2022-07-24T00:43:26;9.57;;;5.32;;
59127;SDS011;44912;52.754;5.994;2022-07-24T00:45:52;9.55;;;5.43;;
59127;SDS011;44912;52.754;5.994;2022-07-24T00:48:20;8.23;;;4.88;;
59127;SDS011;44912;52.754;5.994;2022-07-24T00:50:51;7.18;;;5.32;;
59127;SDS011;44912;52.754;5.994;2022-07-24T00:53:16;8.63;;;5.13;;
59127;SDS011;44912;52.754;5.994;2022-07-24T00:55:42;7.78;;;5.35;;
59127;SDS011;44912;52.754;5.994;2022-07-24T00:58:10;8.27;;;4.95;;
59127;SDS011;44912;52.754;5.994;2022-07-24T01:00:40;7.40;;;5.00;;
59127;SDS011;44912;52.754;5.994;2022-07-24T01:03:05;8.25;;;5.75;;
59127;SDS011;44912;52.754;5.994;2022-07-24T01:05:31;8.07;;;5.15;;
59127;SDS011;44912;52.754;5.994;2022-07-24T01:07:57;8.27;;;5.30;;
59127;SDS011;44912;52.754;5.994;2022-07-24T01:10:22;10.02;;;5.78;;
59127;SDS011;44912;52.754;5.994;2022-07-24T01:12:48;9.05;;;5.82;;
59127;SDS011;44912;52.754;5.994;2022-07-24T01:15:13;8.18;;;5.30;;
59127;SDS011;44912;52.754;5.994;2022-07-24T01:17:39;9.73;;;5.97;;
59127;SDS011;44912;52.754;5.994;2022-07-24T01:20:06;9.00;;;5.03;;
59127;SDS011;44912;52.754;5.994;2022-07-24T01:22:33;7.95;;;5.47;;
59127;SDS011;44912;52.754;5.994;2022-07-24T01:24:59;7.43;;;5.30;;
59127;SDS011;44912;52.754;5.994;2022-07-24T01:27:25;7.97;;;5.60;;
59127;SDS011;44912;52.754;5.994;2022-07-24T01:29:53;8.68;;;6.03;;
59127;SDS011;44912;52.754;5.994;2022-07-24T01:32:18;8.82;;;5.93;;
59127;SDS011;44912;52.754;5.994;2022-07-24T01:34:44;9.07;;;5.75;;
59127;SDS011;44912;52.754;5.994;2022-07-24T01:37:10;8.40;;;5.22;;
59127;SDS011;44912;52.754;5.994;2022-07-24T01:39:35;9.05;;;5.43;;
59127;SDS011;44912;52.754;5.994;2022-07-24T01:42:01;8.65;;;5.57;;
59127;SDS011;44912;52.754;5.994;2022-07-24T01:44:27;9.57;;;5.70;;
59127;SDS011;44912;52.754;5.994;2022-07-24T01:46:55;9.38;;;6.07;;
59127;SDS011;44912;52.754;5.994;2022-07-24T01:49:23;7.88;;;5.43;;
59127;SDS011;44912;52.754;5.994;2022-07-24T01:51:49;8.77;;;5.63;;
59127;SDS011;44912;52.754;5.994;2022-07-24T01:54:17;8.77;;;6.10;;
59127;SDS011;44912;52.754;5.994;2022-07-24T01:56:43;8.43;;;6.15;;
59127;SDS011;44912;52.754;5.994;2022-07-24T01:59:08;9.93;;;6.55;;
59127;SDS011;44912;52.754;5.994;2022-07-24T02:01:34;9.20;;;6.35;;
59127;SDS011;44912;52.754;5.994;2022-07-24T02:04:00;9.80;;;6.57;;
59127;SDS011;44912;52.754;5.994;2022-07-24T02:06:28;10.43;;;6.78;;
59127;SDS011;44912;52.754;5.994;2022-07-24T02:08:54;8.98;;;6.40;;
59127;SDS011;44912;52.754;5.994;2022-07-24T02:11:19;10.32;;;6.93;;
59127;SDS011;44912;52.754;5.994;2022-07-24T02:13:45;9.57;;;6.65;;
59127;SDS011;44912;52.754;5.994;2022-07-24T02:16:13;9.35;;;6.70;;
59127;SDS011;44912;52.754;5.994;2022-07-24T02:18:39;9.50;;;6.97;;
59127;SDS011;44912;52.754;5.994;2022-07-24T02:21:04;9.20;;;6.60;;
59127;SDS011;44912;52.754;5.994;2022-07-24T02:23:30;9.82;;;6.85;;
59127;SDS011;44912;52.754;5.994;2022-07-24T02:25:56;9.25;;;7.22;;
59127;SDS011;44912;52.754;5.994;2022-07-24T02:28:23;11.02;;;6.82;;
59127;SDS011;44912;52.754;5.994;2022-07-24T02:30:52;10.52;;;6.80;;
59127;SDS011;44912;52.754;5.994;2022-07-24T02:33:17;8.95;;;6.53;;
59127;SDS011;44912;52.754;5.994;2022-07-24T02:35:45;10.77;;;6.43;;
59127;SDS011;44912;52.754;5.994;2022-07-24T02:38:16;10.05;;;6.85;;
59127;SDS011;44912;52.754;5.994;2022-07-24T02:40:42;9.35;;;6.60;;
59127;SDS011;44912;52.754;5.994;2022-07-24T02:43:07;9.50;;;6.30;;
59127;SDS011;44912;52.754;5.994;2022-07-24T02:45:36;8.77;;;6.15;;
59127;SDS011;44912;52.754;5.994;2022-07-24T02:48:01;10.07;;;6.95;;
59127;SDS011;44912;52.754;5.994;2022-07-24T02:50:33;8.85;;;6.32;;
59127;SDS011;44912;52.754;5.994;2022-07-24T02:53:00;9.98;;;7.10;;
59127;SDS011;44912;52.754;5.994;2022-07-24T02:55:28;10.23;;;7.20;;
59127;SDS011;44912;52.754;5.994;2022-07-24T02:57:56;9.70;;;6.95;;
59127;SDS011;44912;52.754;5.994;2022-07-24T03:00:22;9.50;;;6.75;;
59127;SDS011;44912;52.754;5.994;2022-07-24T03:02:48;10.05;;;6.80;;
59127;SDS011;44912;52.754;5.994;2022-07-24T03:05:14;10.63;;;7.05;;
59127;SDS011;44912;52.754;5.994;2022-07-24T03:07:40;11.40;;;7.35;;
59127;SDS011;44912;52.754;5.994;2022-07-24T03:10:09;8.23;;;6.60;;
59127;SDS011;44912;52.754;5.994;2022-07-24T03:12:36;10.25;;;7.10;;
59127;SDS011;44912;52.754;5.994;2022-07-24T03:15:02;11.23;;;7.57;;
59127;SDS011;44912;52.754;5.994;2022-07-24T03:17:28;10.15;;;7.43;;
59127;SDS011;44912;52.754;5.994;2022-07-24T03:19:53;9.35;;;7.20;;
59127;SDS011;44912;52.754;5.994;2022-07-24T03:22:19;11.48;;;8.02;;
59127;SDS011;44912;52.754;5.994;2022-07-24T03:24:45;9.75;;;7.15;;
59127;SDS011;44912;52.754;5.994;2022-07-24T03:27:10;10.70;;;7.80;;
59127;SDS011;44912;52.754;5.994;2022-07-24T03:29:36;9.70;;;7.93;;
59127;SDS011;44912;52.754;5.994;2022-07-24T03:32:01;11.90;;;7.55;;
59127;SDS011;44912;52.754;5.994;2022-07-24T03:34:27;12.57;;;7.95;;
59127;SDS011;44912;52.754;5.994;2022-07-24T03:36:52;10.27;;;7.80;;
59127;SDS011;44912;52.754;5.994;2022-07-24T03:39:18;10.10;;;8.05;;
59127;SDS011;44912;52.754;5.994;2022-07-24T03:41:44;9.80;;;8.05;;
59127;SDS011;44912;52.754;5.994;2022-07-24T03:44:09;12.32;;;8.38;;
59127;SDS011;44912;52.754;5.994;2022-07-24T03:46:35;10.52;;;8.10;;
59127;SDS011;44912;52.754;5.994;2022-07-24T03:49:01;12.38;;;8.50;;
59127;SDS011;44912;52.754;5.994;2022-07-24T03:51:27;11.65;;;8.10;;
59127;SDS011;44912;52.754;5.994;2022-07-24T03:53:53;11.63;;;8.43;;
59127;SDS011;44912;52.754;5.994;2022-07-24T03:56:19;11.43;;;7.95;;
59127;SDS011;44912;52.754;5.994;2022-07-24T03:58:44;12.38;;;8.18;;
59127;SDS011;44912;52.754;5.994;2022-07-24T04:01:10;11.02;;;8.35;;
59127;SDS011;44912;52.754;5.994;2022-07-24T04:03:36;12.15;;;8.25;;
59127;SDS011;44912;52.754;5.994;2022-07-24T04:06:02;11.45;;;7.70;;
59127;SDS011;44912;52.754;5.994;2022-07-24T04:08:29;10.32;;;7.38;;
59127;SDS011;44912;52.754;5.994;2022-07-24T04:10:54;11.85;;;8.55;;
59127;SDS011;44912;52.754;5.994;2022-07-24T04:13:23;10.07;;;8.15;;
59127;SDS011;44912;52.754;5.994;2022-07-24T04:15:50;11.38;;;8.73;;
59127;SDS011;44912;52.754;5.994;2022-07-24T04:18:16;12.57;;;8.98;;
59127;SDS011;44912;52.754;5.994;2022-07-24T04:20:41;11.23;;;8.65;;
59127;SDS011;44912;52.754;5.994;2022-07-24T04:23:07;12.57;;;9.10;;
59127;SDS011;44912;52.754;5.994;2022-07-24T04:25:33;10.73;;;8.18;;
59127;SDS011;44912;52.754;5.994;2022-07-24T04:27:59;12.57;;;9.02;;
59127;SDS011;44912;52.754;5.994;2022-07-24T04:30:25;12.35;;;8.70;;
59127;SDS011;44912;52.754;5.994;2022-07-24T04:32:51;11.95;;;8.98;;
59127;SDS011;44912;52.754;5.994;2022-07-24T04:35:17;11.80;;;9.10;;
59127;SDS011;44912;52.754;5.994;2022-07-24T04:37:42;12.18;;;8.98;;
59127;SDS011;44912;52.754;5.994;2022-07-24T04:40:08;12.88;;;9.20;;
59127;SDS011;44912;52.754;5.994;2022-07-24T04:42:34;12.13;;;8.82;;
59127;SDS011;44912;52.754;5.994;2022-07-24T04:45:00;12.45;;;9.27;;
59127;SDS011;44912;52.754;5.994;2022-07-24T04:47:25;12.82;;;9.80;;
59127;SDS011;44912;52.754;5.994;2022-07-24T04:49:51;12.70;;;9.60;;
59127;SDS011;44912;52.754;5.994;2022-07-24T04:52:16;14.68;;;10.30;;
59127;SDS011;44912;52.754;5.994;2022-07-24T04:54:42;12.02;;;9.48;;
59127;SDS011;44912;52.754;5.994;2022-07-24T04:57:08;14.20;;;10.00;;
59127;SDS011;44912;52.754;5.994;2022-07-24T04:59:33;13.55;;;9.35;;
59127;SDS011;44912;52.754;5.994;2022-07-24T05:01:59;12.38;;;9.63;;
59127;SDS011;44912;52.754;5.994;2022-07-24T05:04:24;13.07;;;10.50;;
59127;SDS011;44912;52.754;5.994;2022-07-24T05:06:50;14.48;;;9.93;;
59127;SDS011;44912;52.754;5.994;2022-07-24T05:09:15;13.52;;;10.00;;
59127;SDS011;44912;52.754;5.994;2022-07-24T05:11:41;12.50;;;9.43;;
59127;SDS011;44912;52.754;5.994;2022-07-24T05:14:07;12.30;;;9.63;;
59127;SDS011;44912;52.754;5.994;2022-07-24T05:16:32;16.52;;;10.52;;
59127;SDS011;44912;52.754;5.994;2022-07-24T05:18:58;14.13;;;10.25;;
59127;SDS011;44912;52.754;5.994;2022-07-24T05:21:24;13.25;;;9.98;;
59127;SDS011;44912;52.754;5.994;2022-07-24T05:23:49;17.48;;;10.23;;
59127;SDS011;44912;52.754;5.994;2022-07-24T05:26:15;13.35;;;10.05;;
59127;SDS011;44912;52.754;5.994;2022-07-24T05:28:40;13.65;;;10.35;;
59127;SDS011;44912;52.754;5.994;2022-07-24T05:31:06;13.23;;;10.95;;
59127;SDS011;44912;52.754;5.994;2022-07-24T05:33:33;12.75;;;10.48;;
59127;SDS011;44912;52.754;5.994;2022-07-24T05:35:59;14.30;;;10.88;;
59127;SDS011;44912;52.754;5.994;2022-07-24T05:38:25;15.13;;;11.35;;
59127;SDS011;44912;52.754;5.994;2022-07-24T05:40:51;13.63;;;10.45;;
59127;SDS011;44912;52.754;5.994;2022-07-24T05:43:16;13.48;;;11.65;;
59127;SDS011;44912;52.754;5.994;2022-07-24T05:45:42;13.82;;;11.27;;
59127;SDS011;44912;52.754;5.994;2022-07-24T05:48:08;16.15;;;12.05;;
59127;SDS011;44912;52.754;5.994;2022-07-24T05:50:33;16.35;;;11.82;;
59127;SDS011;44912;52.754;5.994;2022-07-24T05:52:59;16.75;;;12.23;;
59127;SDS011;44912;52.754;5.994;2022-07-24T05:55:27;17.05;;;12.50;;
59127;SDS011;44912;52.754;5.994;2022-07-24T05:57:54;18.17;;;12.77;;
59127;SDS011;44912;52.754;5.994;2022-07-24T06:00:20;14.70;;;12.05;;
59127;SDS011;44912;52.754;5.994;2022-07-24T06:02:45;13.90;;;12.00;;
59127;SDS011;44912;52.754;5.994;2022-07-24T06:05:12;15.38;;;12.60;;
59127;SDS011;44912;52.754;5.994;2022-07-24T06:07:38;17.52;;;13.18;;
59127;SDS011;44912;52.754;5.994;2022-07-24T06:10:04;15.88;;;13.18;;
59127;SDS011;44912;52.754;5.994;2022-07-24T06:12:30;17.38;;;13.23;;
59127;SDS011;44912;52.754;5.994;2022-07-24T06:14:55;18.25;;;14.07;;
59127;SDS011;44912;52.754;5.994;2022-07-24T06:17:21;17.45;;;13.60;;
59127;SDS011;44912;52.754;5.994;2022-07-24T06:19:46;18.35;;;14.07;;
59127;SDS011;44912;52.754;5.994;2022-07-24T06:22:12;15.15;;;12.32;;
59127;SDS011;44912;52.754;5.994;2022-07-24T06:24:37;17.00;;;13.13;;
59127;SDS011;44912;52.754;5.994;2022-07-24T06:27:03;17.00;;;13.45;;
59127;SDS011;44912;52.754;5.994;2022-07-24T06:29:31;17.63;;;13.43;;
59127;SDS011;44912;52.754;5.994;2022-07-24T06:31:57;17.80;;;13.80;;
59127;SDS011;44912;52.754;5.994;2022-07-24T06:34:22;18.25;;;13.30;;
59127;SDS011;44912;52.754;5.994;2022-07-24T06:36:51;18.05;;;12.90;;
59127;SDS011;44912;52.754;5.994;2022-07-24T06:39:17;18.42;;;13.35;;
59127;SDS011;44912;52.754;5.994;2022-07-24T06:41:43;17.83;;;13.52;;
59127;SDS011;44912;52.754;5.994;2022-07-24T06:44:09;19.58;;;15.25;;
59127;SDS011;44912;52.754;5.994;2022-07-24T06:46:34;16.88;;;13.95;;
59127;SDS011;44912;52.754;5.994;2022-07-24T06:49:01;16.75;;;14.52;;
59127;SDS011;44912;52.754;5.994;2022-07-24T06:51:27;21.08;;;15.75;;
59127;SDS011;44912;52.754;5.994;2022-07-24T06:53:52;18.90;;;14.75;;
59127;SDS011;44912;52.754;5.994;2022-07-24T06:56:18;18.75;;;14.43;;
59127;SDS011;44912;52.754;5.994;2022-07-24T06:58:46;17.42;;;14.65;;
59127;SDS011;44912;52.754;5.994;2022-07-24T07:01:12;16.88;;;13.57;;
59127;SDS011;44912;52.754;5.994;2022-07-24T07:03:40;18.48;;;12.50;;
59127;SDS011;44912;52.754;5.994;2022-07-24T07:06:07;16.80;;;12.82;;
59127;SDS011;44912;52.754;5.994;2022-07-24T07:08:33;13.50;;;10.77;;
59127;SDS011;44912;52.754;5.994;2022-07-24T07:10:59;14.25;;;11.00;;
59127;SDS011;44912;52.754;5.994;2022-07-24T07:13:25;14.38;;;11.25;;
59127;SDS011;44912;52.754;5.994;2022-07-24T07:15:50;15.55;;;10.43;;
59127;SDS011;44912;52.754;5.994;2022-07-24T07:18:16;12.95;;;9.85;;
59127;SDS011;44912;52.754;5.994;2022-07-24T07:20:44;14.25;;;9.82;;
59127;SDS011;44912;52.754;5.994;2022-07-24T07:23:09;15.85;;;9.93;;
59127;SDS011;44912;52.754;5.994;2022-07-24T07:25:38;11.73;;;7.38;;
59127;SDS011;44912;52.754;5.994;2022-07-24T07:28:03;10.50;;;6.97;;
59127;SDS011;44912;52.754;5.994;2022-07-24T07:30:29;12.13;;;7.45;;
59127;SDS011;44912;52.754;5.994;2022-07-24T07:32:55;11.27;;;7.68;;
59127;SDS011;44912;52.754;5.994;2022-07-24T07:35:20;11.82;;;7.35;;
59127;SDS011;44912;52.754;5.994;2022-07-24T07:37:47;11.25;;;6.80;;
59127;SDS011;44912;52.754;5.994;2022-07-24T07:40:16;11.00;;;6.55;;
59127;SDS011;44912;52.754;5.994;2022-07-24T07:42:41;10.55;;;6.90;;
59127;SDS011;44912;52.754;5.994;2022-07-24T07:45:07;10.73;;;7.00;;
59127;SDS011;44912;52.754;5.994;2022-07-24T07:47:35;11.10;;;6.85;;
59127;SDS011;44912;52.754;5.994;2022-07-24T07:50:02;10.85;;;6.20;;
59127;SDS011;44912;52.754;5.994;2022-07-24T07:52:28;8.73;;;5.43;;
59127;SDS011;44912;52.754;5.994;2022-07-24T07:54:54;10.35;;;5.60;;
59127;SDS011;44912;52.754;5.994;2022-07-24T07:57:20;9.32;;;5.20;;
59127;SDS011;44912;52.754;5.994;2022-07-24T07:59:45;8.07;;;4.97;;
59127;SDS011;44912;52.754;5.994;2022-07-24T08:02:13;8.30;;;5.18;;
59127;SDS011;44912;52.754;5.994;2022-07-24T08:04:40;9.55;;;5.35;;
59127;SDS011;44912;52.754;5.994;2022-07-24T08:07:06;6.63;;;4.53;;
59127;SDS011;44912;52.754;5.994;2022-07-24T08:09:34;7.68;;;4.72;;
59127;SDS011;44912;52.754;5.994;2022-07-24T08:12:00;10.00;;;5.35;;
59127;SDS011;44912;52.754;5.994;2022-07-24T08:14:25;9.68;;;5.00;;
59127;SDS011;44912;52.754;5.994;2022-07-24T08:16:51;9.20;;;4.35;;
59127;SDS011;44912;52.754;5.994;2022-07-24T08:19:16;9.88;;;4.50;;
59127;SDS011;44912;52.754;5.994;2022-07-24T08:21:42;7.15;;;4.57;;
59127;SDS011;44912;52.754;5.994;2022-07-24T08:24:08;7.22;;;4.20;;
59127;SDS011;44912;52.754;5.994;2022-07-24T08:26:33;7.75;;;4.10;;
59127;SDS011;44912;52.754;5.994;2022-07-24T08:28:59;9.10;;;4.45;;
59127;SDS011;44912;52.754;5.994;2022-07-24T08:31:25;8.00;;;4.72;;
59127;SDS011;44912;52.754;5.994;2022-07-24T08:33:51;9.45;;;4.35;;
59127;SDS011;44912;52.754;5.994;2022-07-24T08:36:17;8.30;;;4.18;;
59127;SDS011;44912;52.754;5.994;2022-07-24T08:38:42;7.55;;;4.22;;
59127;SDS011;44912;52.754;5.994;2022-07-24T08:41:08;5.75;;;3.50;;
59127;SDS011;44912;52.754;5.994;2022-07-24T08:43:33;8.93;;;3.67;;
59127;SDS011;44912;52.754;5.994;2022-07-24T08:45:59;6.97;;;3.70;;
59127;SDS011;44912;52.754;5.994;2022-07-24T08:48:30;6.65;;;3.35;;
59127;SDS011;44912;52.754;5.994;2022-07-24T08:50:56;6.55;;;3.25;;
59127;SDS011;44912;52.754;5.994;2022-07-24T08:53:23;6.53;;;3.00;;
59127;SDS011;44912;52.754;5.994;2022-07-24T08:55:49;5.95;;;3.20;;
59127;SDS011;44912;52.754;5.994;2022-07-24T08:58:14;6.10;;;3.20;;
59127;SDS011;44912;52.754;5.994;2022-07-24T09:00:40;7.50;;;3.85;;
59127;SDS011;44912;52.754;5.994;2022-07-24T09:03:06;5.45;;;3.30;;
59127;SDS011;44912;52.754;5.994;2022-07-24T09:05:32;5.60;;;2.90;;
59127;SDS011;44912;52.754;5.994;2022-07-24T09:08:11;6.00;;;2.90;;
59127;SDS011;44912;52.754;5.994;2022-07-24T09:10:39;6.28;;;2.60;;
59127;SDS011;44912;52.754;5.994;2022-07-24T09:13:12;6.85;;;2.92;;
59127;SDS011;44912;52.754;5.994;2022-07-24T09:15:43;5.80;;;2.85;;
59127;SDS011;44912;52.754;5.994;2022-07-24T09:18:10;6.03;;;2.72;;
59127;SDS011;44912;52.754;5.994;2022-07-24T09:20:56;5.40;;;2.97;;
59127;SDS011;44912;52.754;5.994;2022-07-24T09:23:25;5.30;;;2.80;;
59127;SDS011;44912;52.754;5.994;2022-07-24T09:25:52;4.82;;;2.75;;
59127;SDS011;44912;52.754;5.994;2022-07-24T09:28:19;5.88;;;3.15;;
59127;SDS011;44912;52.754;5.994;2022-07-24T09:30:45;5.95;;;2.83;;
59127;SDS011;44912;52.754;5.994;2022-07-24T09:35:42;7.97;;;3.03;;
59127;SDS011;44912;52.754;5.994;2022-07-24T09:38:09;7.05;;;3.10;;
59127;SDS011;44912;52.754;5.994;2022-07-24T09:40:40;6.45;;;3.10;;
59127;SDS011;44912;52.754;5.994;2022-07-24T09:43:15;4.97;;;2.70;;
59127;SDS011;44912;52.754;5.994;2022-07-24T09:48:35;5.07;;;2.58;;
59127;SDS011;44912;52.754;5.994;2022-07-24T09:51:08;5.03;;;2.60;;
59127;SDS011;44912;52.754;5.994;2022-07-24T09:53:40;5.43;;;2.83;;
59127;SDS011;44912;52.754;5.994;2022-07-24T09:58:40;6.63;;;2.88;;
59127;SDS011;44912;52.754;5.994;2022-07-24T10:01:09;5.38;;;2.88;;
59127;SDS011;44912;52.754;5.994;2022-07-24T10:03:36;8.15;;;2.78;;
59127;SDS011;44912;52.754;5.994;2022-07-24T10:06:04;4.95;;;2.60;;
59127;SDS011;44912;52.754;5.994;2022-07-24T10:08:32;5.03;;;2.50;;
59127;SDS011;44912;52.754;5.994;2022-07-24T10:11:01;5.22;;;2.55;;
59127;SDS011;44912;52.754;5.994;2022-07-24T10:13:27;4.13;;;2.40;;
59127;SDS011;44912;52.754;5.994;2022-07-24T10:16:01;4.55;;;2.40;;
59127;SDS011;44912;52.754;5.994;2022-07-24T10:18:48;4.53;;;2.60;;
59127;SDS011;44912;52.754;5.994;2022-07-24T10:26:39;6.18;;;2.58;;
59127;SDS011;44912;52.754;5.994;2022-07-24T10:29:09;4.85;;;2.47;;
59127;SDS011;44912;52.754;5.994;2022-07-24T10:31:42;5.43;;;2.40;;
59127;SDS011;44912;52.754;5.994;2022-07-24T10:34:21;5.17;;;2.53;;
59127;SDS011;44912;52.754;5.994;2022-07-24T10:45:30;4.63;;;2.47;;
59127;SDS011;44912;52.754;5.994;2022-07-24T10:47:56;4.70;;;2.20;;
59127;SDS011;44912;52.754;5.994;2022-07-24T10:50:22;4.22;;;2.30;;
59127;SDS011;44912;52.754;5.994;2022-07-24T10:52:48;4.90;;;2.17;;
59127;SDS011;44912;52.754;5.994;2022-07-24T11:00:32;4.20;;;2.30;;
59127;SDS011;44912;52.754;5.994;2022-07-24T11:03:06;4.72;;;2.13;;
59127;SDS011;44912;52.754;5.994;2022-07-24T11:05:42;5.30;;;2.47;;
59127;SDS011;44912;52.754;5.994;2022-07-24T11:10:46;4.60;;;2.33;;
59127;SDS011;44912;52.754;5.994;2022-07-24T11:18:40;5.32;;;2.20;;
59127;SDS011;44912;52.754;5.994;2022-07-24T11:26:52;4.95;;;2.35;;
59127;SDS011;44912;52.754;5.994;2022-07-24T11:29:45;5.40;;;2.50;;
59127;SDS011;44912;52.754;5.994;2022-07-24T11:32:18;5.20;;;2.38;;
59127;SDS011;44912;52.754;5.994;2022-07-24T11:34:44;4.93;;;2.25;;
59127;SDS011;44912;52.754;5.994;2022-07-24T11:37:11;5.78;;;2.35;;
59127;SDS011;44912;52.754;5.994;2022-07-24T11:39:38;3.83;;;2.15;;
59127;SDS011;44912;52.754;5.994;2022-07-24T11:42:08;6.35;;;2.58;;
59127;SDS011;44912;52.754;5.994;2022-07-24T11:49:42;4.88;;;2.47;;
59127;SDS011;44912;52.754;5.994;2022-07-24T11:54:46;4.95;;;2.30;;
59127;SDS011;44912;52.754;5.994;2022-07-24T11:57:17;4.18;;;2.35;;
59127;SDS011;44912;52.754;5.994;2022-07-24T11:59:46;5.53;;;2.30;;
59127;SDS011;44912;52.754;5.994;2022-07-24T12:02:12;5.70;;;2.42;;
59127;SDS011;44912;52.754;5.994;2022-07-24T12:04:39;4.93;;;2.25;;
59127;SDS011;44912;52.754;5.994;2022-07-24T12:07:06;4.70;;;2.30;;
59127;SDS011;44912;52.754;5.994;2022-07-24T12:09:43;5.25;;;2.33;;
59127;SDS011;44912;52.754;5.994;2022-07-24T12:12:35;4.65;;;2.40;;
59127;SDS011;44912;52.754;5.994;2022-07-24T12:17:31;5.00;;;2.22;;
59127;SDS011;44912;52.754;5.994;2022-07-24T12:19:59;5.72;;;2.20;;
59127;SDS011;44912;52.754;5.994;2022-07-24T12:22:27;4.85;;;2.30;;
59127;SDS011;44912;52.754;5.994;2022-07-24T12:24:53;4.85;;;2.40;;
59127;SDS011;44912;52.754;5.994;2022-07-24T12:27:37;4.65;;;2.50;;
59127;SDS011;44912;52.754;5.994;2022-07-24T12:30:17;7.15;;;3.00;;
59127;SDS011;44912;52.754;5.994;2022-07-24T12:33:00;4.18;;;2.13;;
59127;SDS011;44912;52.754;5.994;2022-07-24T12:35:27;5.72;;;2.50;;
59127;SDS011;44912;52.754;5.994;2022-07-24T12:37:55;3.45;;;2.25;;
59127;SDS011;44912;52.754;5.994;2022-07-24T12:40:32;5.53;;;2.35;;
59127;SDS011;44912;52.754;5.994;2022-07-24T12:43:06;5.03;;;2.60;;
59127;SDS011;44912;52.754;5.994;2022-07-24T12:45:33;4.57;;;2.25;;
59127;SDS011;44912;52.754;5.994;2022-07-24T12:50:36;3.50;;;2.20;;
59127;SDS011;44912;52.754;5.994;2022-07-24T12:53:04;3.70;;;2.20;;
59127;SDS011;44912;52.754;5.994;2022-07-24T12:55:30;3.85;;;2.30;;
59127;SDS011;44912;52.754;5.994;2022-07-24T12:57:58;4.43;;;2.50;;
59127;SDS011;44912;52.754;5.994;2022-07-24T13:00:25;5.22;;;2.53;;
59127;SDS011;44912;52.754;5.994;2022-07-24T13:02:51;3.90;;;2.00;;
59127;SDS011;44912;52.754;5.994;2022-07-24T13:05:35;4.65;;;2.45;;
59127;SDS011;44912;52.754;5.994;2022-07-24T13:08:05;4.82;;;2.42;;
59127;SDS011;44912;52.754;5.994;2022-07-24T13:10:30;3.08;;;2.20;;
59127;SDS011;44912;52.754;5.994;2022-07-24T13:12:56;4.70;;;2.03;;
59127;SDS011;44912;52.754;5.994;2022-07-24T13:15:21;6.35;;;2.50;;
59127;SDS011;44912;52.754;5.994;2022-07-24T13:17:47;4.43;;;2.30;;
59127;SDS011;44912;52.754;5.994;2022-07-24T13:20:13;4.57;;;2.33;;
59127;SDS011;44912;52.754;5.994;2022-07-24T13:22:38;4.65;;;2.35;;
59127;SDS011;44912;52.754;5.994;2022-07-24T13:25:04;5.00;;;2.58;;
59127;SDS011;44912;52.754;5.994;2022-07-24T13:27:30;4.03;;;2.20;;
59127;SDS011;44912;52.754;5.994;2022-07-24T13:29:55;3.67;;;2.30;;
59127;SDS011;44912;52.754;5.994;2022-07-24T13:32:21;3.22;;;2.00;;
59127;SDS011;44912;52.754;5.994;2022-07-24T13:34:47;7.07;;;2.47;;
59127;SDS011;44912;52.754;5.994;2022-07-24T13:37:12;3.92;;;2.10;;
59127;SDS011;44912;52.754;5.994;2022-07-24T13:39:38;4.82;;;2.20;;
59127;SDS011;44912;52.754;5.994;2022-07-24T13:42:05;5.88;;;2.40;;
59127;SDS011;44912;52.754;5.994;2022-07-24T13:44:30;5.15;;;2.28;;
59127;SDS011;44912;52.754;5.994;2022-07-24T13:46:56;6.07;;;2.30;;
59127;SDS011;44912;52.754;5.994;2022-07-24T13:49:24;5.00;;;2.30;;
59127;SDS011;44912;52.754;5.994;2022-07-24T13:51:52;4.28;;;2.20;;
59127;SDS011;44912;52.754;5.994;2022-07-24T13:54:18;6.00;;;2.40;;
59127;SDS011;44912;52.754;5.994;2022-07-24T13:56:43;4.40;;;2.20;;
59127;SDS011;44912;52.754;5.994;2022-07-24T13:59:09;6.05;;;2.50;;
59127;SDS011;44912;52.754;5.994;2022-07-24T14:01:35;4.43;;;2.20;;
59127;SDS011;44912;52.754;5.994;2022-07-24T14:04:01;5.43;;;2.83;;
59127;SDS011;44912;52.754;5.994;2022-07-24T14:06:33;6.55;;;2.50;;
59127;SDS011;44912;52.754;5.994;2022-07-24T14:09:00;5.53;;;2.25;;
59127;SDS011;44912;52.754;5.994;2022-07-24T14:11:26;4.18;;;1.98;;
59127;SDS011;44912;52.754;5.994;2022-07-24T14:13:52;3.95;;;1.95;;
59127;SDS011;44912;52.754;5.994;2022-07-24T14:16:20;4.07;;;2.00;;
59127;SDS011;44912;52.754;5.994;2022-07-24T14:18:46;5.55;;;2.20;;
59127;SDS011;44912;52.754;5.994;2022-07-24T14:21:12;4.07;;;2.15;;
59127;SDS011;44912;52.754;5.994;2022-07-24T14:23:37;4.82;;;2.20;;
59127;SDS011;44912;52.754;5.994;2022-07-24T14:26:06;3.13;;;1.80;;
59127;SDS011;44912;52.754;5.994;2022-07-24T14:28:32;4.80;;;2.03;;
59127;SDS011;44912;52.754;5.994;2022-07-24T14:30:58;4.80;;;1.98;;
59127;SDS011;44912;52.754;5.994;2022-07-24T14:33:24;4.43;;;1.95;;
59127;SDS011;44912;52.754;5.994;2022-07-24T14:35:50;5.03;;;2.10;;
59127;SDS011;44912;52.754;5.994;2022-07-24T14:38:16;5.30;;;2.13;;
59127;SDS011;44912;52.754;5.994;2022-07-24T14:40:41;3.63;;;2.00;;
59127;SDS011;44912;52.754;5.994;2022-07-24T14:43:07;4.55;;;2.00;;
59127;SDS011;44912;52.754;5.994;2022-07-24T14:45:32;4.18;;;1.90;;
59127;SDS011;44912;52.754;5.994;2022-07-24T14:47:58;4.47;;;2.10;;
59127;SDS011;44912;52.754;5.994;2022-07-24T14:50:24;3.70;;;1.95;;
59127;SDS011;44912;52.754;5.994;2022-07-24T14:52:49;4.15;;;2.13;;
59127;SDS011;44912;52.754;5.994;2022-07-24T14:55:15;3.03;;;1.75;;
59127;SDS011;44912;52.754;5.994;2022-07-24T14:57:43;6.25;;;2.15;;
59127;SDS011;44912;52.754;5.994;2022-07-24T15:00:08;3.80;;;1.90;;
59127;SDS011;44912;52.754;5.994;2022-07-24T15:02:35;3.47;;;2.10;;
59127;SDS011;44912;52.754;5.994;2022-07-24T15:05:01;3.45;;;1.90;;
59127;SDS011;44912;52.754;5.994;2022-07-24T15:07:27;3.75;;;1.80;;
59127;SDS011;44912;52.754;5.994;2022-07-24T15:09:53;4.07;;;1.90;;
59127;SDS011;44912;52.754;5.994;2022-07-24T15:12:18;3.70;;;1.90;;
59127;SDS011;44912;52.754;5.994;2022-07-24T15:14:44;3.10;;;1.83;;
59127;SDS011;44912;52.754;5.994;2022-07-24T15:17:09;4.25;;;2.28;;
59127;SDS011;44912;52.754;5.994;2022-07-24T15:19:35;4.00;;;1.73;;
59127;SDS011;44912;52.754;5.994;2022-07-24T15:22:01;3.90;;;1.70;;
59127;SDS011;44912;52.754;5.994;2022-07-24T15:24:26;3.58;;;1.90;;
59127;SDS011;44912;52.754;5.994;2022-07-24T15:26:54;3.95;;;1.88;;
59127;SDS011;44912;52.754;5.994;2022-07-24T15:29:19;5.72;;;2.03;;
59127;SDS011;44912;52.754;5.994;2022-07-24T15:31:45;3.15;;;1.95;;
59127;SDS011;44912;52.754;5.994;2022-07-24T15:34:12;4.05;;;1.67;;